sensor_id;sensor_type;location;lat;lon;timestamp;temperature;humidity
5118;DHT22;2578;51.622;7.046;2023-05-10T00:00:13;13.00;99.90
5118;DHT22;2578;51.622;7.046;2023-05-10T00:02:39;12.90;99.90
5118;DHT22;2578;51.622;7.046;2023-05-10T00:05:05;13.00;99.90
5118;DHT22;2578;51.622;7.046;2023-05-10T00:07:32;12.90;99.90
5118;DHT22;2578;51.622;7.046;2023-05-10T00:09:57;12.90;99.90
5118;DHT22;2578;51.622;7.046;2023-05-10T00:12:23;12.90;99.90
5118;DHT22;2578;51.622;7.046;2023-05-10T00:14:48;12.90;99.90
5118;DHT22;2578;51.622;7.046;2023-05-10T00:17:14;12.90;99.90
5118;DHT22;2578;51.622;7.046;2023-05-10T00:19:40;13.00;99.90
5118;DHT22;2578;51.622;7.046;2023-05-10T00:22:05;12.90;99.90
5118;DHT22;2578;51.622;7.046;2023-05-10T00:24:31;12.90;99.90
5118;DHT22;2578;51.622;7.046;2023-05-10T00:26:56;12.90;99.90
5118;DHT22;2578;51.622;7.046;2023-05-10T00:29:22;12.90;99.90
5118;DHT22;2578;51.622;7.046;2023-05-10T00:31:47;12.80;99.90
5118;DHT22;2578;51.622;7.046;2023-05-10T00:34:13;12.90;99.90
5118;DHT22;2578;51.622;7.046;2023-05-10T00:36:39;12.80;99.90
5118;DHT22;2578;51.622;7.046;2023-05-10T00:39:04;12.80;99.90
5118;DHT22;2578;51.622;7.046;2023-05-10T00:41:30;12.80;99.90
5118;DHT22;2578;51.622;7.046;2023-05-10T00:43:58;12.80;99.90
5118;DHT22;2578;51.622;7.046;2023-05-10T00:46:25;12.80;99.90
5118;DHT22;2578;51.622;7.046;2023-05-10T00:48:51;12.80;99.90
5118;DHT22;2578;51.622;7.046;2023-05-10T00:51:17;12.70;99.90
5118;DHT22;2578;51.622;7.046;2023-05-10T00:53:45;12.80;99.90
5118;DHT22;2578;51.622;7.046;2023-05-10T00:56:11;12.60;99.90
5118;DHT22;2578;51.622;7.046;2023-05-10T00:58:37;12.60;99.90
5118;DHT22;2578;51.622;7.046;2023-05-10T01:01:04;12.60;99.90
5118;DHT22;2578;51.622;7.046;2023-05-10T01:03:30;12.60;99.90
5118;DHT22;2578;51.622;7.046;2023-05-10T01:05:56;12.60;99.90
5118;DHT22;2578;51.622;7.046;2023-05-10T01:08:22;12.60;99.90
5118;DHT22;2578;51.622;7.046;2023-05-10T01:10:48;12.50;99.90
5118;DHT22;2578;51.622;7.046;2023-05-10T01:13:26;12.50;99.90
5118;DHT22;2578;51.622;7.046;2023-05-10T01:15:56;12.50;99.90
5118;DHT22;2578;51.622;7.046;2023-05-10T01:18:22;12.50;99.90
5118;DHT22;2578;51.622;7.046;2023-05-10T01:20:56;12.40;99.90
5118;DHT22;2578;51.622;7.046;2023-05-10T01:23:52;12.50;99.90
5118;DHT22;2578;51.622;7.046;2023-05-10T01:29:19;12.40;99.90
5118;DHT22;2578;51.622;7.046;2023-05-10T01:32:27;12.40;99.90
5118;DHT22;2578;51.622;7.046;2023-05-10T01:35:00;12.40;99.90
5118;DHT22;2578;51.622;7.046;2023-05-10T01:40:29;12.40;99.90
5118;DHT22;2578;51.622;7.046;2023-05-10T01:43:02;12.40;99.90
5118;DHT22;2578;51.622;7.046;2023-05-10T01:48:11;12.40;99.90
5118;DHT22;2578;51.622;7.046;2023-05-10T01:50:42;12.40;99.90
5118;DHT22;2578;51.622;7.046;2023-05-10T01:53:10;12.40;99.90
5118;DHT22;2578;51.622;7.046;2023-05-10T01:55:44;12.40;99.90
5118;DHT22;2578;51.622;7.046;2023-05-10T01:58:39;12.40;99.90
5118;DHT22;2578;51.622;7.046;2023-05-10T02:01:04;12.60;99.90
5118;DHT22;2578;51.622;7.046;2023-05-10T02:03:32;14.00;99.90
5118;DHT22;2578;51.622;7.046;2023-05-10T02:06:02;12.30;99.90
5118;DHT22;2578;51.622;7.046;2023-05-10T02:08:29;12.30;99.90
5118;DHT22;2578;51.622;7.046;2023-05-10T02:10:56;12.30;99.90
5118;DHT22;2578;51.622;7.046;2023-05-10T02:13:24;12.30;99.90
5118;DHT22;2578;51.622;7.046;2023-05-10T02:15:51;12.30;99.90
5118;DHT22;2578;51.622;7.046;2023-05-10T02:18:18;12.70;99.90
5118;DHT22;2578;51.622;7.046;2023-05-10T02:20:46;12.20;99.90
5118;DHT22;2578;51.622;7.046;2023-05-10T02:23:13;12.10;99.90
5118;DHT22;2578;51.622;7.046;2023-05-10T02:25:40;12.10;99.90
5118;DHT22;2578;51.622;7.046;2023-05-10T02:28:07;12.10;99.90
5118;DHT22;2578;51.622;7.046;2023-05-10T02:30:34;12.10;99.90
5118;DHT22;2578;51.622;7.046;2023-05-10T02:33:01;12.10;99.90
5118;DHT22;2578;51.622;7.046;2023-05-10T02:35:28;12.00;99.90
5118;DHT22;2578;51.622;7.046;2023-05-10T02:37:54;12.40;99.90
5118;DHT22;2578;51.622;7.046;2023-05-10T02:40:23;12.00;99.90
5118;DHT22;2578;51.622;7.046;2023-05-10T02:42:50;12.00;99.90
5118;DHT22;2578;51.622;7.046;2023-05-10T02:45:20;12.00;99.90
5118;DHT22;2578;51.622;7.046;2023-05-10T02:47:47;12.00;99.90
5118;DHT22;2578;51.622;7.046;2023-05-10T02:50:13;12.10;99.90
5118;DHT22;2578;51.622;7.046;2023-05-10T02:52:42;12.10;99.90
5118;DHT22;2578;51.622;7.046;2023-05-10T02:55:09;12.10;99.90
5118;DHT22;2578;51.622;7.046;2023-05-10T02:57:41;12.10;99.90
5118;DHT22;2578;51.622;7.046;2023-05-10T03:00:08;12.10;99.90
5118;DHT22;2578;51.622;7.046;2023-05-10T03:02:34;12.20;99.90
5118;DHT22;2578;51.622;7.046;2023-05-10T03:05:00;12.90;99.90
5118;DHT22;2578;51.622;7.046;2023-05-10T03:07:26;12.10;99.90
5118;DHT22;2578;51.622;7.046;2023-05-10T03:09:52;12.20;99.90
5118;DHT22;2578;51.622;7.046;2023-05-10T03:12:47;12.10;99.90
5118;DHT22;2578;51.622;7.046;2023-05-10T03:20:49;12.00;99.90
5118;DHT22;2578;51.622;7.046;2023-05-10T03:23:41;12.00;99.90
5118;DHT22;2578;51.622;7.046;2023-05-10T03:26:07;12.00;99.90
5118;DHT22;2578;51.622;7.046;2023-05-10T03:28:34;12.00;99.90
5118;DHT22;2578;51.622;7.046;2023-05-10T03:31:00;12.00;99.90
5118;DHT22;2578;51.622;7.046;2023-05-10T03:33:27;12.00;99.90
5118;DHT22;2578;51.622;7.046;2023-05-10T03:35:53;12.10;99.90
5118;DHT22;2578;51.622;7.046;2023-05-10T03:38:19;12.10;99.90
5118;DHT22;2578;51.622;7.046;2023-05-10T03:40:44;12.10;99.90
5118;DHT22;2578;51.622;7.046;2023-05-10T03:43:10;12.10;99.90
5118;DHT22;2578;51.622;7.046;2023-05-10T03:45:36;12.20;99.90
5118;DHT22;2578;51.622;7.046;2023-05-10T03:48:01;12.20;99.90
5118;DHT22;2578;51.622;7.046;2023-05-10T03:50:27;12.20;99.90
5118;DHT22;2578;51.622;7.046;2023-05-10T03:52:52;12.30;99.90
5118;DHT22;2578;51.622;7.046;2023-05-10T03:55:18;12.30;99.90
5118;DHT22;2578;51.622;7.046;2023-05-10T03:57:44;12.20;99.90
5118;DHT22;2578;51.622;7.046;2023-05-10T04:00:10;13.10;99.90
5118;DHT22;2578;51.622;7.046;2023-05-10T04:02:36;12.30;99.90
5118;DHT22;2578;51.622;7.046;2023-05-10T04:05:01;12.30;99.90
5118;DHT22;2578;51.622;7.046;2023-05-10T04:07:27;12.30;99.90
5118;DHT22;2578;51.622;7.046;2023-05-10T04:09:53;12.30;99.90
5118;DHT22;2578;51.622;7.046;2023-05-10T04:12:18;12.40;99.90
5118;DHT22;2578;51.622;7.046;2023-05-10T04:14:44;12.40;99.90
5118;DHT22;2578;51.622;7.046;2023-05-10T04:17:10;12.30;99.90
5118;DHT22;2578;51.622;7.046;2023-05-10T04:19:35;12.40;99.90
5118;DHT22;2578;51.622;7.046;2023-05-10T04:22:02;12.40;99.90
5118;DHT22;2578;51.622;7.046;2023-05-10T04:24:28;12.40;99.90
5118;DHT22;2578;51.622;7.046;2023-05-10T04:26:54;12.40;99.90
5118;DHT22;2578;51.622;7.046;2023-05-10T04:29:20;12.40;99.90
5118;DHT22;2578;51.622;7.046;2023-05-10T04:31:46;12.40;99.90
5118;DHT22;2578;51.622;7.046;2023-05-10T04:34:12;12.50;99.90
5118;DHT22;2578;51.622;7.046;2023-05-10T04:36:39;12.50;99.90
5118;DHT22;2578;51.622;7.046;2023-05-10T04:39:04;12.50;99.90
5118;DHT22;2578;51.622;7.046;2023-05-10T04:41:30;12.50;99.90
5118;DHT22;2578;51.622;7.046;2023-05-10T04:43:56;12.50;99.90
5118;DHT22;2578;51.622;7.046;2023-05-10T04:46:21;12.50;99.90
5118;DHT22;2578;51.622;7.046;2023-05-10T04:48:47;12.50;99.90
5118;DHT22;2578;51.622;7.046;2023-05-10T04:51:13;12.50;99.90
5118;DHT22;2578;51.622;7.046;2023-05-10T04:53:38;12.50;99.90
5118;DHT22;2578;51.622;7.046;2023-05-10T04:56:04;12.50;99.90
5118;DHT22;2578;51.622;7.046;2023-05-10T04:58:30;11.20;99.90
5118;DHT22;2578;51.622;7.046;2023-05-10T05:00:56;12.50;99.90
5118;DHT22;2578;51.622;7.046;2023-05-10T05:03:21;12.50;99.90
5118;DHT22;2578;51.622;7.046;2023-05-10T05:05:47;12.50;99.90
5118;DHT22;2578;51.622;7.046;2023-05-10T05:08:13;12.50;99.90
5118;DHT22;2578;51.622;7.046;2023-05-10T05:10:39;12.60;99.90
5118;DHT22;2578;51.622;7.046;2023-05-10T05:13:04;12.60;99.90
5118;DHT22;2578;51.622;7.046;2023-05-10T05:15:30;12.70;99.90
5118;DHT22;2578;51.622;7.046;2023-05-10T05:17:56;13.00;99.90
5118;DHT22;2578;51.622;7.046;2023-05-10T05:20:22;12.60;99.90
5118;DHT22;2578;51.622;7.046;2023-05-10T05:22:52;12.90;99.90
5118;DHT22;2578;51.622;7.046;2023-05-10T05:25:18;12.60;99.90
5118;DHT22;2578;51.622;7.046;2023-05-10T05:27:44;12.60;99.90
5118;DHT22;2578;51.622;7.046;2023-05-10T05:32:38;12.60;99.90
5118;DHT22;2578;51.622;7.046;2023-05-10T05:35:04;12.50;99.90
5118;DHT22;2578;51.622;7.046;2023-05-10T05:37:30;12.60;99.90
5118;DHT22;2578;51.622;7.046;2023-05-10T05:39:55;12.70;99.90
5118;DHT22;2578;51.622;7.046;2023-05-10T05:42:21;12.60;99.90
5118;DHT22;2578;51.622;7.046;2023-05-10T05:44:49;12.60;99.90
5118;DHT22;2578;51.622;7.046;2023-05-10T05:47:14;12.70;99.90
5118;DHT22;2578;51.622;7.046;2023-05-10T05:49:40;12.70;99.90
5118;DHT22;2578;51.622;7.046;2023-05-10T05:52:06;15.10;99.90
5118;DHT22;2578;51.622;7.046;2023-05-10T05:54:31;12.90;99.90
5118;DHT22;2578;51.622;7.046;2023-05-10T05:56:58;13.20;99.90
5118;DHT22;2578;51.622;7.046;2023-05-10T05:59:25;12.80;99.90
5118;DHT22;2578;51.622;7.046;2023-05-10T06:01:51;12.80;99.90
5118;DHT22;2578;51.622;7.046;2023-05-10T06:04:17;12.70;99.90
5118;DHT22;2578;51.622;7.046;2023-05-10T06:06:43;12.90;99.90
5118;DHT22;2578;51.622;7.046;2023-05-10T06:09:09;13.00;99.90
5118;DHT22;2578;51.622;7.046;2023-05-10T06:11:34;13.10;99.90
5118;DHT22;2578;51.622;7.046;2023-05-10T06:14:01;13.20;99.90
5118;DHT22;2578;51.622;7.046;2023-05-10T06:16:27;13.40;99.90
5118;DHT22;2578;51.622;7.046;2023-05-10T06:18:52;13.40;99.90
5118;DHT22;2578;51.622;7.046;2023-05-10T06:21:18;13.50;99.90
5118;DHT22;2578;51.622;7.046;2023-05-10T06:23:43;13.50;99.90
5118;DHT22;2578;51.622;7.046;2023-05-10T06:26:09;13.60;99.90
5118;DHT22;2578;51.622;7.046;2023-05-10T06:28:35;14.20;99.90
5118;DHT22;2578;51.622;7.046;2023-05-10T06:31:03;13.60;99.90
5118;DHT22;2578;51.622;7.046;2023-05-10T06:33:29;13.60;99.90
5118;DHT22;2578;51.622;7.046;2023-05-10T06:35:55;13.60;99.90
5118;DHT22;2578;51.622;7.046;2023-05-10T06:38:21;13.80;99.90
5118;DHT22;2578;51.622;7.046;2023-05-10T06:40:47;13.90;99.90
5118;DHT22;2578;51.622;7.046;2023-05-10T06:43:12;14.20;99.90
5118;DHT22;2578;51.622;7.046;2023-05-10T06:45:38;13.80;99.90
5118;DHT22;2578;51.622;7.046;2023-05-10T06:48:03;13.80;99.90
5118;DHT22;2578;51.622;7.046;2023-05-10T06:50:29;13.80;90.20
5118;DHT22;2578;51.622;7.046;2023-05-10T06:52:55;13.80;90.90
5118;DHT22;2578;51.622;7.046;2023-05-10T06:55:21;13.70;53.70
5118;DHT22;2578;51.622;7.046;2023-05-10T06:57:46;13.70;1.00
5118;DHT22;2578;51.622;7.046;2023-05-10T07:02:39;13.60;11.80
5118;DHT22;2578;51.622;7.046;2023-05-10T07:05:05;13.60;1.00
5118;DHT22;2578;51.622;7.046;2023-05-10T07:07:31;13.60;21.50
5118;DHT22;2578;51.622;7.046;2023-05-10T07:09:57;13.60;50.70
5118;DHT22;2578;51.622;7.046;2023-05-10T07:12:23;13.80;99.90
5118;DHT22;2578;51.622;7.046;2023-05-10T07:14:49;13.90;99.90
5118;DHT22;2578;51.622;7.046;2023-05-10T07:17:15;14.20;99.90
5118;DHT22;2578;51.622;7.046;2023-05-10T07:19:40;14.30;1.00
5118;DHT22;2578;51.622;7.046;2023-05-10T07:22:06;14.60;1.00
5118;DHT22;2578;51.622;7.046;2023-05-10T07:24:32;14.80;99.90
5118;DHT22;2578;51.622;7.046;2023-05-10T07:26:58;14.90;99.90
5118;DHT22;2578;51.622;7.046;2023-05-10T07:29:24;14.80;1.00
5118;DHT22;2578;51.622;7.046;2023-05-10T07:31:50;15.00;99.90
5118;DHT22;2578;51.622;7.046;2023-05-10T07:34:15;14.90;99.90
5118;DHT22;2578;51.622;7.046;2023-05-10T07:36:41;14.80;99.90
5118;DHT22;2578;51.622;7.046;2023-05-10T07:39:07;15.00;99.90
5118;DHT22;2578;51.622;7.046;2023-05-10T07:41:32;15.10;99.90
5118;DHT22;2578;51.622;7.046;2023-05-10T07:43:58;15.10;99.90
5118;DHT22;2578;51.622;7.046;2023-05-10T07:46:24;15.10;99.90
5118;DHT22;2578;51.622;7.046;2023-05-10T07:48:50;15.10;99.90
5118;DHT22;2578;51.622;7.046;2023-05-10T07:51:15;15.30;99.90
5118;DHT22;2578;51.622;7.046;2023-05-10T07:53:41;15.40;99.90
5118;DHT22;2578;51.622;7.046;2023-05-10T07:56:25;13.40;99.90
5118;DHT22;2578;51.622;7.046;2023-05-10T07:58:53;15.40;99.90
5118;DHT22;2578;51.622;7.046;2023-05-10T08:01:19;15.80;99.90
5118;DHT22;2578;51.622;7.046;2023-05-10T08:03:45;16.00;99.90
5118;DHT22;2578;51.622;7.046;2023-05-10T08:06:11;16.30;99.90
5118;DHT22;2578;51.622;7.046;2023-05-10T08:08:36;16.30;94.70
5118;DHT22;2578;51.622;7.046;2023-05-10T08:11:03;16.30;98.20
5118;DHT22;2578;51.622;7.046;2023-05-10T08:13:28;16.30;99.80
5118;DHT22;2578;51.622;7.046;2023-05-10T08:15:54;16.10;99.90
5118;DHT22;2578;51.622;7.046;2023-05-10T08:18:19;15.60;88.70
5118;DHT22;2578;51.622;7.046;2023-05-10T08:20:45;15.10;97.00
5118;DHT22;2578;51.622;7.046;2023-05-10T08:23:12;15.20;99.90
5118;DHT22;2578;51.622;7.046;2023-05-10T08:25:38;15.10;99.90
5118;DHT22;2578;51.622;7.046;2023-05-10T08:28:04;14.90;99.90
5118;DHT22;2578;51.622;7.046;2023-05-10T08:30:29;15.00;99.90
5118;DHT22;2578;51.622;7.046;2023-05-10T08:33:01;15.00;99.90
5118;DHT22;2578;51.622;7.046;2023-05-10T08:38:18;15.90;99.90
5118;DHT22;2578;51.622;7.046;2023-05-10T08:40:44;16.30;78.60
5118;DHT22;2578;51.622;7.046;2023-05-10T08:43:12;16.30;91.20
5118;DHT22;2578;51.622;7.046;2023-05-10T08:45:40;16.40;58.10
5118;DHT22;2578;51.622;7.046;2023-05-10T08:48:08;16.70;41.60
5118;DHT22;2578;51.622;7.046;2023-05-10T08:50:36;15.50;19.60
5118;DHT22;2578;51.622;7.046;2023-05-10T08:53:06;16.20;21.30
5118;DHT22;2578;51.622;7.046;2023-05-10T08:55:32;17.00;19.60
5118;DHT22;2578;51.622;7.046;2023-05-10T08:57:59;17.10;20.70
5118;DHT22;2578;51.622;7.046;2023-05-10T09:00:25;17.20;4.50
5118;DHT22;2578;51.622;7.046;2023-05-10T09:02:59;17.20;10.40
5118;DHT22;2578;51.622;7.046;2023-05-10T09:05:25;16.80;1.00
5118;DHT22;2578;51.622;7.046;2023-05-10T09:07:51;16.20;11.40
5118;DHT22;2578;51.622;7.046;2023-05-10T09:10:17;16.20;10.30
5118;DHT22;2578;51.622;7.046;2023-05-10T09:12:57;16.30;23.30
5118;DHT22;2578;51.622;7.046;2023-05-10T09:15:24;16.50;4.10
5118;DHT22;2578;51.622;7.046;2023-05-10T09:17:50;16.80;10.90
5118;DHT22;2578;51.622;7.046;2023-05-10T09:20:15;16.80;1.00
5118;DHT22;2578;51.622;7.046;2023-05-10T09:22:43;16.70;1.00
5118;DHT22;2578;51.622;7.046;2023-05-10T09:25:10;16.70;1.00
5118;DHT22;2578;51.622;7.046;2023-05-10T09:27:40;16.40;1.00
5118;DHT22;2578;51.622;7.046;2023-05-10T09:30:07;16.00;1.00
5118;DHT22;2578;51.622;7.046;2023-05-10T09:32:40;15.80;1.00
5118;DHT22;2578;51.622;7.046;2023-05-10T09:35:17;15.80;7.90
5118;DHT22;2578;51.622;7.046;2023-05-10T09:37:45;15.10;7.20
5118;DHT22;2578;51.622;7.046;2023-05-10T09:40:19;14.90;1.00
5118;DHT22;2578;51.622;7.046;2023-05-10T09:42:56;14.90;10.60
5118;DHT22;2578;51.622;7.046;2023-05-10T09:45:32;14.90;15.40
5118;DHT22;2578;51.622;7.046;2023-05-10T09:47:59;14.90;35.70
5118;DHT22;2578;51.622;7.046;2023-05-10T09:50:26;14.90;38.40
5118;DHT22;2578;51.622;7.046;2023-05-10T09:52:58;14.90;50.00
5118;DHT22;2578;51.622;7.046;2023-05-10T09:55:45;15.20;55.10
5118;DHT22;2578;51.622;7.046;2023-05-10T09:58:12;15.50;38.60
5118;DHT22;2578;51.622;7.046;2023-05-10T10:00:43;15.60;11.60
5118;DHT22;2578;51.622;7.046;2023-05-10T10:03:16;15.70;32.00
5118;DHT22;2578;51.622;7.046;2023-05-10T10:05:42;15.70;18.00
5118;DHT22;2578;51.622;7.046;2023-05-10T10:08:09;15.80;18.90
5118;DHT22;2578;51.622;7.046;2023-05-10T10:10:34;15.60;1.00
5118;DHT22;2578;51.622;7.046;2023-05-10T10:13:01;15.70;2.80
5118;DHT22;2578;51.622;7.046;2023-05-10T10:15:27;15.60;8.30
5118;DHT22;2578;51.622;7.046;2023-05-10T10:17:53;15.60;1.30
5118;DHT22;2578;51.622;7.046;2023-05-10T10:20:22;16.00;1.50
5118;DHT22;2578;51.622;7.046;2023-05-10T10:22:48;16.10;11.50
5118;DHT22;2578;51.622;7.046;2023-05-10T10:25:16;16.10;1.00
5118;DHT22;2578;51.622;7.046;2023-05-10T10:28:02;16.20;5.70
5118;DHT22;2578;51.622;7.046;2023-05-10T10:30:43;16.00;1.00
5118;DHT22;2578;51.622;7.046;2023-05-10T10:33:41;16.00;1.00
5118;DHT22;2578;51.622;7.046;2023-05-10T10:36:15;15.90;1.00
5118;DHT22;2578;51.622;7.046;2023-05-10T10:41:28;15.50;1.00
5118;DHT22;2578;51.622;7.046;2023-05-10T10:44:22;15.50;1.00
5118;DHT22;2578;51.622;7.046;2023-05-10T10:50:07;15.30;11.30
5118;DHT22;2578;51.622;7.046;2023-05-10T10:52:35;15.00;1.00
5118;DHT22;2578;51.622;7.046;2023-05-10T10:55:18;15.20;14.40
5118;DHT22;2578;51.622;7.046;2023-05-10T11:00:29;15.30;19.30
5118;DHT22;2578;51.622;7.046;2023-05-10T11:08:07;15.40;5.30
5118;DHT22;2578;51.622;7.046;2023-05-10T11:10:33;16.20;2.50
5118;DHT22;2578;51.622;7.046;2023-05-10T11:13:08;16.30;9.80
5118;DHT22;2578;51.622;7.046;2023-05-10T11:15:36;16.90;1.00
5118;DHT22;2578;51.622;7.046;2023-05-10T11:18:26;17.10;1.00
5118;DHT22;2578;51.622;7.046;2023-05-10T11:20:56;17.40;1.00
5118;DHT22;2578;51.622;7.046;2023-05-10T11:23:23;17.30;1.00
5118;DHT22;2578;51.622;7.046;2023-05-10T11:25:49;16.60;1.00
5118;DHT22;2578;51.622;7.046;2023-05-10T11:28:17;16.50;1.00
5118;DHT22;2578;51.622;7.046;2023-05-10T11:30:44;16.00;1.00
5118;DHT22;2578;51.622;7.046;2023-05-10T11:33:16;16.00;1.00
5118;DHT22;2578;51.622;7.046;2023-05-10T11:35:42;16.10;1.00
5118;DHT22;2578;51.622;7.046;2023-05-10T11:38:08;13.70;1.00
5118;DHT22;2578;51.622;7.046;2023-05-10T11:40:35;16.70;1.00
5118;DHT22;2578;51.622;7.046;2023-05-10T11:43:01;16.20;1.00
5118;DHT22;2578;51.622;7.046;2023-05-10T11:45:27;16.40;1.00
5118;DHT22;2578;51.622;7.046;2023-05-10T11:47:57;16.40;1.00
5118;DHT22;2578;51.622;7.046;2023-05-10T11:50:23;16.70;1.00
5118;DHT22;2578;51.622;7.046;2023-05-10T11:52:56;16.80;1.00
5118;DHT22;2578;51.622;7.046;2023-05-10T11:55:22;16.70;1.00
5118;DHT22;2578;51.622;7.046;2023-05-10T11:57:53;16.30;1.00
5118;DHT22;2578;51.622;7.046;2023-05-10T12:00:18;16.10;1.00
5118;DHT22;2578;51.622;7.046;2023-05-10T12:02:44;16.10;1.00
5118;DHT22;2578;51.622;7.046;2023-05-10T12:05:10;15.90;1.00
5118;DHT22;2578;51.622;7.046;2023-05-10T12:07:36;16.00;1.00
5118;DHT22;2578;51.622;7.046;2023-05-10T12:12:51;16.20;1.00
5118;DHT22;2578;51.622;7.046;2023-05-10T12:15:22;16.40;1.00
5118;DHT22;2578;51.622;7.046;2023-05-10T12:17:48;16.30;1.00
5118;DHT22;2578;51.622;7.046;2023-05-10T12:22:43;16.70;1.00
5118;DHT22;2578;51.622;7.046;2023-05-10T12:25:09;16.90;1.00
5118;DHT22;2578;51.622;7.046;2023-05-10T12:27:35;16.90;1.00
5118;DHT22;2578;51.622;7.046;2023-05-10T12:30:02;16.90;1.00
5118;DHT22;2578;51.622;7.046;2023-05-10T12:32:40;17.10;1.00
5118;DHT22;2578;51.622;7.046;2023-05-10T12:35:07;17.30;1.00
5118;DHT22;2578;51.622;7.046;2023-05-10T12:37:33;17.60;1.00
5118;DHT22;2578;51.622;7.046;2023-05-10T12:40:06;17.90;1.00
5118;DHT22;2578;51.622;7.046;2023-05-10T12:42:32;18.10;1.00
5118;DHT22;2578;51.622;7.046;2023-05-10T12:44:57;18.60;1.00
5118;DHT22;2578;51.622;7.046;2023-05-10T12:47:23;19.10;1.00
5118;DHT22;2578;51.622;7.046;2023-05-10T12:49:48;18.90;1.00
5118;DHT22;2578;51.622;7.046;2023-05-10T12:52:14;17.60;1.00
5118;DHT22;2578;51.622;7.046;2023-05-10T12:54:40;17.60;1.00
5118;DHT22;2578;51.622;7.046;2023-05-10T12:57:05;17.50;1.00
5118;DHT22;2578;51.622;7.046;2023-05-10T12:59:31;17.90;1.00
5118;DHT22;2578;51.622;7.046;2023-05-10T13:01:57;17.80;1.00
5118;DHT22;2578;51.622;7.046;2023-05-10T13:04:23;17.80;1.00
5118;DHT22;2578;51.622;7.046;2023-05-10T13:06:48;17.60;1.00
5118;DHT22;2578;51.622;7.046;2023-05-10T13:09:14;17.90;1.00
5118;DHT22;2578;51.622;7.046;2023-05-10T13:11:40;18.40;1.00
5118;DHT22;2578;51.622;7.046;2023-05-10T13:14:06;18.50;1.00
5118;DHT22;2578;51.622;7.046;2023-05-10T13:16:32;18.30;1.00
5118;DHT22;2578;51.622;7.046;2023-05-10T13:18:58;18.10;1.00
5118;DHT22;2578;51.622;7.046;2023-05-10T13:21:24;18.20;1.00
5118;DHT22;2578;51.622;7.046;2023-05-10T13:23:50;18.20;1.00
5118;DHT22;2578;51.622;7.046;2023-05-10T13:26:16;18.30;1.00
5118;DHT22;2578;51.622;7.046;2023-05-10T13:28:41;18.50;1.00
5118;DHT22;2578;51.622;7.046;2023-05-10T13:31:07;19.20;1.00
5118;DHT22;2578;51.622;7.046;2023-05-10T13:33:33;19.50;1.00
5118;DHT22;2578;51.622;7.046;2023-05-10T13:35:59;20.10;1.00
5118;DHT22;2578;51.622;7.046;2023-05-10T13:38:24;22.10;1.00
5118;DHT22;2578;51.622;7.046;2023-05-10T13:40:50;20.20;1.00
5118;DHT22;2578;51.622;7.046;2023-05-10T13:43:18;20.10;1.00
5118;DHT22;2578;51.622;7.046;2023-05-10T13:45:44;19.90;1.00
5118;DHT22;2578;51.622;7.046;2023-05-10T13:48:09;19.50;1.00
5118;DHT22;2578;51.622;7.046;2023-05-10T13:50:35;19.60;1.00
5118;DHT22;2578;51.622;7.046;2023-05-10T13:53:01;19.60;1.00
5118;DHT22;2578;51.622;7.046;2023-05-10T13:55:26;20.10;1.00
5118;DHT22;2578;51.622;7.046;2023-05-10T13:57:52;20.50;1.00
5118;DHT22;2578;51.622;7.046;2023-05-10T14:00:18;20.70;1.00
5118;DHT22;2578;51.622;7.046;2023-05-10T14:02:43;20.70;1.00
5118;DHT22;2578;51.622;7.046;2023-05-10T14:05:09;20.20;1.00
5118;DHT22;2578;51.622;7.046;2023-05-10T14:07:35;20.30;1.00
5118;DHT22;2578;51.622;7.046;2023-05-10T14:10:00;19.30;1.00
5118;DHT22;2578;51.622;7.046;2023-05-10T14:12:26;18.20;1.00
5118;DHT22;2578;51.622;7.046;2023-05-10T14:14:52;17.90;1.00
5118;DHT22;2578;51.622;7.046;2023-05-10T14:17:18;17.70;1.00
5118;DHT22;2578;51.622;7.046;2023-05-10T14:19:44;17.70;1.00
5118;DHT22;2578;51.622;7.046;2023-05-10T14:22:10;17.60;1.00
5118;DHT22;2578;51.622;7.046;2023-05-10T14:24:35;17.70;1.00
5118;DHT22;2578;51.622;7.046;2023-05-10T14:27:01;17.60;1.00
5118;DHT22;2578;51.622;7.046;2023-05-10T14:29:27;17.50;1.00
5118;DHT22;2578;51.622;7.046;2023-05-10T14:31:52;17.30;1.00
5118;DHT22;2578;51.622;7.046;2023-05-10T14:34:18;17.30;1.00
5118;DHT22;2578;51.622;7.046;2023-05-10T14:36:44;17.20;1.00
5118;DHT22;2578;51.622;7.046;2023-05-10T14:39:09;17.20;1.00
5118;DHT22;2578;51.622;7.046;2023-05-10T14:41:35;17.10;1.00
5118;DHT22;2578;51.622;7.046;2023-05-10T14:44:01;17.30;1.00
5118;DHT22;2578;51.622;7.046;2023-05-10T14:46:28;17.90;1.00
5118;DHT22;2578;51.622;7.046;2023-05-10T14:48:55;18.40;1.00
5118;DHT22;2578;51.622;7.046;2023-05-10T14:51:20;18.60;1.00
5118;DHT22;2578;51.622;7.046;2023-05-10T14:53:50;18.60;1.00
5118;DHT22;2578;51.622;7.046;2023-05-10T14:56:16;18.90;1.00
5118;DHT22;2578;51.622;7.046;2023-05-10T15:02:03;19.40;1.00
5118;DHT22;2578;51.622;7.046;2023-05-10T15:04:29;19.10;1.00
5118;DHT22;2578;51.622;7.046;2023-05-10T15:06:55;18.70;1.00
5118;DHT22;2578;51.622;7.046;2023-05-10T15:09:26;18.00;1.00
5118;DHT22;2578;51.622;7.046;2023-05-10T15:11:53;17.80;1.00
5118;DHT22;2578;51.622;7.046;2023-05-10T15:14:19;17.60;1.00
5118;DHT22;2578;51.622;7.046;2023-05-10T15:16:44;17.50;1.00
5118;DHT22;2578;51.622;7.046;2023-05-10T15:19:10;17.80;1.00
5118;DHT22;2578;51.622;7.046;2023-05-10T15:21:35;17.80;1.00
5118;DHT22;2578;51.622;7.046;2023-05-10T15:24:07;17.70;1.00
5118;DHT22;2578;51.622;7.046;2023-05-10T15:26:32;17.70;1.00
5118;DHT22;2578;51.622;7.046;2023-05-10T15:28:58;17.70;1.00
5118;DHT22;2578;51.622;7.046;2023-05-10T15:31:24;17.50;1.00
5118;DHT22;2578;51.622;7.046;2023-05-10T15:33:49;17.40;1.00
5118;DHT22;2578;51.622;7.046;2023-05-10T15:36:15;17.40;1.00
5118;DHT22;2578;51.622;7.046;2023-05-10T15:38:43;17.40;1.00
5118;DHT22;2578;51.622;7.046;2023-05-10T15:41:08;17.40;1.00
5118;DHT22;2578;51.622;7.046;2023-05-10T15:43:34;17.50;1.00
5118;DHT22;2578;51.622;7.046;2023-05-10T15:46:00;17.60;1.00
5118;DHT22;2578;51.622;7.046;2023-05-10T15:48:25;17.70;1.00
5118;DHT22;2578;51.622;7.046;2023-05-10T15:50:51;17.90;1.00
5118;DHT22;2578;51.622;7.046;2023-05-10T15:53:16;17.90;1.00
5118;DHT22;2578;51.622;7.046;2023-05-10T15:55:42;17.90;1.00
5118;DHT22;2578;51.622;7.046;2023-05-10T15:58:08;17.70;1.00
5118;DHT22;2578;51.622;7.046;2023-05-10T16:00:33;17.40;1.00
5118;DHT22;2578;51.622;7.046;2023-05-10T16:03:00;17.30;1.00
5118;DHT22;2578;51.622;7.046;2023-05-10T16:05:25;17.40;1.00
5118;DHT22;2578;51.622;7.046;2023-05-10T16:07:54;17.30;1.00
5118;DHT22;2578;51.622;7.046;2023-05-10T16:10:20;17.10;1.00
5118;DHT22;2578;51.622;7.046;2023-05-10T16:12:45;17.10;1.00
5118;DHT22;2578;51.622;7.046;2023-05-10T16:15:11;16.90;1.00
5118;DHT22;2578;51.622;7.046;2023-05-10T16:17:37;17.00;1.00
5118;DHT22;2578;51.622;7.046;2023-05-10T16:20:02;17.00;1.00
5118;DHT22;2578;51.622;7.046;2023-05-10T16:22:28;16.90;1.00
5118;DHT22;2578;51.622;7.046;2023-05-10T16:24:56;16.90;1.00
5118;DHT22;2578;51.622;7.046;2023-05-10T16:27:21;16.60;1.00
5118;DHT22;2578;51.622;7.046;2023-05-10T16:29:47;16.60;1.00
5118;DHT22;2578;51.622;7.046;2023-05-10T16:32:12;16.40;1.00
5118;DHT22;2578;51.622;7.046;2023-05-10T16:34:38;16.40;1.00
5118;DHT22;2578;51.622;7.046;2023-05-10T16:37:04;16.30;1.00
5118;DHT22;2578;51.622;7.046;2023-05-10T16:39:29;16.20;1.00
5118;DHT22;2578;51.622;7.046;2023-05-10T16:41:55;16.10;1.00
5118;DHT22;2578;51.622;7.046;2023-05-10T16:44:21;16.00;1.00
5118;DHT22;2578;51.622;7.046;2023-05-10T16:46:46;15.00;1.00
5118;DHT22;2578;51.622;7.046;2023-05-10T16:49:13;15.80;1.00
5118;DHT22;2578;51.622;7.046;2023-05-10T16:51:39;15.60;1.00
5118;DHT22;2578;51.622;7.046;2023-05-10T16:54:05;15.60;1.00